createdAt,value
2019-05-26T00:00:33.110Z,8.27
2019-05-26T00:00:36.828Z,8.40
2019-05-26T00:01:36.969Z,8.80
2019-05-26T00:02:36.909Z,9.90
2019-05-26T00:03:01.953Z,7.13
2019-05-26T00:03:36.821Z,7.80
2019-05-26T00:04:36.855Z,8.20
2019-05-26T00:05:30.832Z,7.00
2019-05-26T00:05:36.970Z,9.70
2019-05-26T00:06:36.937Z,10.70
2019-05-26T00:07:36.941Z,8.70
2019-05-26T00:07:59.667Z,6.37
2019-05-26T00:08:36.887Z,8.60
2019-05-26T00:09:37.012Z,10.40
2019-05-26T00:10:28.546Z,9.40
2019-05-26T00:10:36.914Z,10.20
2019-05-26T00:11:36.934Z,10.00
2019-05-26T00:12:36.952Z,13.40
2019-05-26T00:12:57.416Z,7.60
2019-05-26T00:13:37.023Z,9.80
2019-05-26T00:14:36.981Z,10.00
2019-05-26T00:15:26.417Z,9.27
2019-05-26T00:15:36.993Z,10.40
2019-05-26T00:16:37.014Z,11.30
2019-05-26T00:17:37.046Z,10.40
2019-05-26T00:17:55.644Z,7.07
2019-05-26T00:18:37.044Z,9.10
2019-05-26T00:19:37.055Z,8.40
2019-05-26T00:20:24.546Z,6.80
2019-05-26T00:20:37.068Z,8.90
2019-05-26T00:21:37.083Z,11.30
2019-05-26T00:22:37.176Z,10.50
2019-05-26T00:22:53.411Z,8.63
2019-05-26T00:23:37.120Z,12.40
2019-05-26T00:24:37.136Z,10.30
2019-05-26T00:25:22.292Z,7.33
2019-05-26T00:25:37.151Z,9.70
2019-05-26T00:26:37.164Z,10.10
2019-05-26T00:27:37.190Z,10.30
2019-05-26T00:27:51.131Z,7.03
2019-05-26T00:28:37.193Z,11.80
2019-05-26T00:29:37.216Z,9.70
2019-05-26T00:30:20.019Z,7.47
2019-05-26T00:30:37.224Z,9.20
2019-05-26T00:31:37.244Z,10.20
2019-05-26T00:32:37.256Z,8.10
2019-05-26T00:32:48.863Z,5.60
2019-05-26T00:33:37.272Z,9.60
2019-05-26T00:34:37.286Z,8.00
2019-05-26T00:35:17.765Z,5.80
2019-05-26T00:35:37.307Z,9.10
2019-05-26T00:36:37.319Z,9.20
2019-05-26T00:37:48.546Z,9.40
2019-05-26T00:37:49.947Z,5.70
2019-05-26T00:38:37.353Z,7.80
2019-05-26T00:39:37.372Z,7.70
2019-05-26T00:40:17.151Z,6.37
2019-05-26T00:40:37.389Z,7.60
2019-05-26T00:41:37.398Z,6.70
2019-05-26T00:42:37.416Z,9.20
2019-05-26T00:42:45.995Z,5.47
2019-05-26T00:43:37.431Z,5.90
2019-05-26T00:44:37.446Z,8.50
2019-05-26T00:45:15.695Z,6.50
2019-05-26T00:45:37.464Z,7.60
2019-05-26T00:46:37.478Z,6.50
2019-05-26T00:47:37.494Z,7.60
2019-05-26T00:47:44.615Z,5.47
2019-05-26T00:48:37.510Z,6.60
2019-05-26T00:49:37.537Z,7.30
2019-05-26T00:50:13.490Z,5.90
2019-05-26T00:50:37.549Z,7.90
2019-05-26T00:51:37.557Z,8.30
2019-05-26T00:52:37.569Z,7.80
2019-05-26T00:52:42.387Z,5.93
2019-05-26T00:53:37.589Z,7.10
2019-05-26T00:54:37.603Z,9.50
2019-05-26T00:55:11.308Z,5.03
2019-05-26T00:55:37.618Z,9.00
2019-05-26T00:56:37.636Z,8.80
2019-05-26T00:57:37.657Z,8.30
2019-05-26T00:57:40.156Z,4.80
2019-05-26T00:58:37.666Z,7.50
2019-05-26T00:59:37.681Z,7.50
2019-05-26T01:00:09.590Z,6.30
2019-05-26T01:00:37.699Z,9.10
2019-05-26T01:01:37.718Z,9.50
2019-05-26T01:02:37.727Z,6.90
2019-05-26T01:02:38.475Z,5.73
2019-05-26T01:03:37.744Z,6.70
2019-05-26T01:04:37.761Z,9.60
2019-05-26T01:05:07.455Z,5.47
2019-05-26T01:05:37.778Z,8.90
2019-05-26T01:06:37.793Z,5.80
2019-05-26T01:07:36.318Z,9.80
2019-05-26T01:07:37.814Z,9.60
2019-05-26T01:08:37.824Z,7.60
2019-05-26T01:09:37.839Z,7.20
2019-05-26T01:10:05.737Z,6.07
2019-05-26T01:10:37.853Z,10.00
2019-05-26T01:11:37.872Z,9.20
2019-05-26T01:12:34.579Z,5.30
2019-05-26T01:12:37.891Z,6.40
2019-05-26T01:13:37.899Z,8.20
2019-05-26T01:14:37.916Z,9.80
2019-05-26T01:15:03.513Z,6.03
2019-05-26T01:15:37.935Z,6.50
2019-05-26T01:16:37.949Z,7.90
2019-05-26T01:17:32.355Z,5.83
2019-05-26T01:17:37.965Z,7.10
2019-05-26T01:18:37.980Z,9.80
2019-05-26T01:19:38.001Z,8.40
2019-05-26T01:20:01.249Z,5.40
2019-05-26T01:20:38.014Z,10.40
2019-05-26T01:21:38.031Z,8.20
2019-05-26T01:22:30.084Z,4.83
2019-05-26T01:22:38.044Z,8.30
2019-05-26T01:23:38.061Z,6.70
2019-05-26T01:24:38.082Z,9.60
2019-05-26T01:24:59.057Z,6.83
2019-05-26T01:25:38.094Z,6.50
2019-05-26T01:26:38.111Z,10.20
2019-05-26T01:27:27.904Z,4.87
2019-05-26T01:27:38.130Z,7.20
2019-05-26T01:28:38.150Z,7.50
2019-05-26T01:29:38.159Z,7.70
2019-05-26T01:29:56.755Z,4.50
2019-05-26T01:30:38.182Z,7.40
2019-05-26T01:31:38.193Z,10.20
2019-05-26T01:32:25.633Z,5.57
2019-05-26T01:32:38.215Z,6.90
2019-05-26T01:33:38.224Z,8.30
2019-05-26T01:34:38.237Z,8.10
2019-05-26T01:34:54.777Z,6.00
2019-05-26T01:35:38.260Z,7.60
2019-05-26T01:36:38.276Z,7.60
2019-05-26T01:37:23.751Z,6.07
2019-05-26T01:37:38.285Z,7.40
2019-05-26T01:38:38.301Z,7.00
2019-05-26T01:39:38.317Z,8.40
2019-05-26T01:39:52.679Z,6.03
2019-05-26T01:40:38.335Z,7.70
2019-05-26T01:41:38.351Z,7.20
2019-05-26T01:42:21.773Z,5.77
2019-05-26T01:42:38.367Z,8.60
2019-05-26T01:43:38.382Z,9.00
2019-05-26T01:44:38.401Z,8.30
2019-05-26T01:44:50.623Z,4.83
2019-05-26T01:45:38.415Z,7.40
2019-05-26T01:46:38.432Z,8.10
2019-05-26T01:47:19.537Z,5.50
2019-05-26T01:47:38.449Z,9.20
2019-05-26T01:48:38.466Z,9.80
2019-05-26T01:49:38.482Z,10.00
2019-05-26T01:49:48.412Z,6.03
2019-05-26T01:50:38.508Z,8.00
2019-05-26T01:51:38.514Z,6.60
2019-05-26T01:52:17.322Z,5.73
2019-05-26T01:52:38.530Z,9.10
2019-05-26T01:53:38.548Z,6.80
2019-05-26T01:54:40.880Z,7.60
2019-05-26T01:54:46.170Z,5.43
2019-05-26T01:55:38.583Z,7.90
2019-05-26T01:56:38.592Z,8.90
2019-05-26T01:57:15.076Z,7.63
2019-05-26T01:57:38.608Z,10.10
2019-05-26T01:58:38.623Z,7.10
2019-05-26T01:59:38.642Z,7.60
2019-05-26T01:59:43.921Z,5.80
2019-05-26T02:00:38.654Z,7.10
2019-05-26T02:01:38.673Z,7.90
2019-05-26T02:02:12.831Z,5.67
2019-05-26T02:02:38.689Z,9.20
2019-05-26T02:03:38.704Z,7.10
2019-05-26T02:04:38.721Z,7.10
2019-05-26T02:04:41.708Z,5.70
2019-05-26T02:05:38.747Z,7.70
2019-05-26T02:06:38.753Z,8.70
2019-05-26T02:07:10.644Z,5.93
2019-05-26T02:07:38.770Z,8.00
2019-05-26T02:08:39.938Z,8.80
2019-05-26T02:09:38.807Z,7.20
2019-05-26T02:09:39.640Z,5.57
2019-05-26T02:10:38.821Z,8.80
2019-05-26T02:11:38.834Z,8.10
2019-05-26T02:12:08.518Z,5.43
2019-05-26T02:12:38.852Z,8.20
2019-05-26T02:13:38.866Z,9.10
2019-05-26T02:14:37.360Z,6.03
2019-05-26T02:14:38.884Z,7.90
2019-05-26T02:15:38.899Z,6.30
2019-05-26T02:16:38.915Z,10.90
2019-05-26T02:17:06.242Z,6.10
2019-05-26T02:17:38.931Z,6.30
2019-05-26T02:18:38.945Z,8.10
2019-05-26T02:19:35.078Z,5.83
2019-05-26T02:19:38.962Z,7.40
2019-05-26T02:20:38.977Z,7.00
2019-05-26T02:21:38.991Z,7.90
2019-05-26T02:22:04.106Z,5.83
2019-05-26T02:22:39.009Z,6.60
2019-05-26T02:23:39.025Z,8.70
2019-05-26T02:24:33.021Z,6.33
2019-05-26T02:24:39.039Z,8.40
2019-05-26T02:25:39.057Z,6.30
2019-05-26T02:26:39.071Z,7.30
2019-05-26T02:27:01.909Z,5.23
2019-05-26T02:27:39.092Z,7.00
2019-05-26T02:28:39.105Z,6.80
2019-05-26T02:29:30.745Z,5.77
2019-05-26T02:29:39.120Z,11.90
2019-05-26T02:30:39.137Z,7.80
2019-05-26T02:31:39.152Z,7.50
2019-05-26T02:31:59.623Z,5.57
2019-05-26T02:32:39.164Z,7.50
2019-05-26T02:33:39.182Z,8.30
2019-05-26T02:34:28.482Z,6.57
2019-05-26T02:34:39.206Z,11.30
2019-05-26T02:35:39.218Z,7.70
2019-05-26T02:36:39.237Z,7.90
2019-05-26T02:36:57.359Z,5.70
2019-05-26T02:37:39.252Z,8.70
2019-05-26T02:38:57.409Z,9.80
2019-05-26T02:39:26.223Z,8.37
2019-05-26T02:39:39.279Z,7.60
2019-05-26T02:40:39.294Z,8.50
2019-05-26T02:41:39.313Z,10.80
2019-05-26T02:41:55.163Z,5.73
2019-05-26T02:42:39.327Z,9.30
2019-05-26T02:43:39.347Z,7.90
2019-05-26T02:44:24.022Z,6.17
2019-05-26T02:44:39.358Z,9.60
2019-05-26T02:45:39.373Z,7.20
2019-05-26T02:46:39.384Z,7.10
2019-05-26T02:46:52.922Z,6.57
2019-05-26T02:47:39.408Z,5.80
2019-05-26T02:48:39.433Z,11.50
2019-05-26T02:49:21.851Z,6.43
2019-05-26T02:49:39.461Z,9.00
2019-05-26T02:50:39.452Z,8.50
2019-05-26T02:51:39.485Z,10.90
2019-05-26T02:51:50.891Z,5.30
2019-05-26T02:52:39.485Z,7.10
2019-05-26T02:53:39.504Z,7.40
2019-05-26T02:54:19.801Z,6.83
2019-05-26T02:54:39.516Z,7.00
2019-05-26T02:55:39.539Z,8.20
2019-05-26T02:56:39.555Z,10.50
2019-05-26T02:56:48.691Z,7.30
2019-05-26T02:57:39.565Z,7.30
2019-05-26T02:58:39.584Z,7.50
2019-05-26T02:59:17.633Z,7.03
2019-05-26T02:59:39.598Z,10.30
2019-05-26T03:00:39.630Z,8.40
2019-05-26T03:01:58.167Z,8.10
2019-05-26T03:02:02.138Z,6.30
2019-05-26T03:02:39.644Z,7.90
2019-05-26T03:03:39.662Z,8.00
2019-05-26T03:04:17.007Z,5.93
2019-05-26T03:04:39.681Z,7.10
2019-05-26T03:05:39.693Z,8.20
2019-05-26T03:06:39.709Z,9.90
2019-05-26T03:06:47.201Z,5.83
2019-05-26T03:07:39.720Z,7.90
2019-05-26T03:08:39.744Z,10.80
2019-05-26T03:09:22.970Z,6.43
2019-05-26T03:09:39.751Z,5.80
2019-05-26T03:10:39.787Z,8.80
2019-05-26T03:11:39.802Z,8.30
2019-05-26T03:11:48.272Z,7.50
2019-05-26T03:12:39.802Z,12.90
2019-05-26T03:13:39.818Z,8.90
2019-05-26T03:14:18.626Z,6.37
2019-05-26T03:14:39.837Z,9.20
2019-05-26T03:15:39.884Z,9.70
2019-05-26T03:16:39.861Z,7.80
2019-05-26T03:16:47.606Z,6.33
2019-05-26T03:17:39.882Z,9.50
2019-05-26T03:18:39.896Z,6.40
2019-05-26T03:19:17.920Z,6.47
2019-05-26T03:19:39.913Z,7.30
2019-05-26T03:20:39.934Z,8.30
2019-05-26T03:21:39.942Z,8.60
2019-05-26T03:21:48.599Z,6.87
2019-05-26T03:22:39.959Z,7.90
2019-05-26T03:23:39.971Z,8.80
2019-05-26T03:24:18.351Z,5.70
2019-05-26T03:24:40.001Z,6.40
2019-05-26T03:25:40.007Z,6.50
2019-05-26T03:26:40.020Z,8.50
2019-05-26T03:26:47.258Z,5.93
2019-05-26T03:27:40.039Z,7.70
2019-05-26T03:28:40.056Z,6.80
2019-05-26T03:29:16.179Z,6.73
2019-05-26T03:29:40.109Z,8.00
2019-05-26T03:30:40.093Z,7.40
2019-05-26T03:31:40.099Z,9.90
2019-05-26T03:31:45.066Z,6.67
2019-05-26T03:32:40.207Z,7.20
2019-05-26T03:33:40.147Z,10.50
2019-05-26T03:34:13.937Z,6.50
2019-05-26T03:34:40.148Z,9.40
2019-05-26T03:35:40.165Z,8.60
2019-05-26T03:36:40.184Z,9.00
2019-05-26T03:36:42.848Z,6.53
2019-05-26T03:37:40.197Z,9.20
2019-05-26T03:38:40.211Z,8.80
2019-05-26T03:39:11.728Z,6.87
2019-05-26T03:39:45.159Z,8.20
2019-05-26T03:40:40.247Z,10.50
2019-05-26T03:41:40.257Z,10.40
2019-05-26T03:41:40.608Z,6.53
2019-05-26T03:42:40.281Z,9.00
2019-05-26T03:43:40.300Z,10.30
2019-05-26T03:44:09.488Z,7.10
2019-05-26T03:44:40.307Z,11.90
2019-05-26T03:45:40.319Z,8.10
2019-05-26T03:46:38.381Z,7.20
2019-05-26T03:46:40.336Z,9.00
2019-05-26T03:47:40.355Z,10.20
2019-05-26T03:48:40.368Z,7.80
2019-05-26T03:49:07.271Z,6.57
2019-05-26T03:49:40.390Z,10.90
2019-05-26T03:50:40.400Z,10.90
2019-05-26T03:51:36.128Z,6.83
2019-05-26T03:51:40.421Z,9.50
2019-05-26T03:52:40.447Z,10.70
2019-05-26T03:53:40.449Z,7.30
2019-05-26T03:54:05.111Z,9.40
2019-05-26T03:54:40.462Z,9.20
2019-05-26T03:55:40.485Z,7.50
2019-05-26T03:56:34.007Z,7.90
2019-05-26T03:56:40.502Z,9.50
2019-05-26T03:57:40.513Z,12.40
2019-05-26T03:58:40.528Z,12.60
2019-05-26T03:59:02.895Z,7.03
2019-05-26T03:59:40.544Z,8.00
2019-05-26T04:00:40.562Z,9.60
2019-05-26T04:01:31.741Z,6.47
2019-05-26T04:01:40.579Z,7.40
2019-05-26T04:02:40.595Z,9.40
2019-05-26T04:03:40.612Z,7.30
2019-05-26T04:04:00.628Z,8.60
2019-05-26T04:04:40.623Z,9.30
2019-05-26T04:05:40.641Z,7.10
2019-05-26T04:06:29.471Z,6.90
2019-05-26T04:06:40.658Z,11.60
2019-05-26T04:07:40.673Z,8.60
2019-05-26T04:08:40.701Z,10.60
2019-05-26T04:08:58.416Z,7.23
2019-05-26T04:09:40.712Z,10.20
2019-05-26T04:10:40.718Z,11.30
2019-05-26T04:11:27.302Z,7.03
2019-05-26T04:11:40.736Z,9.10
2019-05-26T04:12:40.752Z,10.10
2019-05-26T04:13:40.773Z,8.10
2019-05-26T04:13:56.175Z,6.87
2019-05-26T04:14:40.796Z,10.50
2019-05-26T04:15:40.799Z,6.40
2019-05-26T04:16:25.035Z,10.13
2019-05-26T04:16:40.817Z,9.40
2019-05-26T04:17:40.855Z,7.50
2019-05-26T04:18:40.910Z,9.30
2019-05-26T04:18:53.939Z,7.43
2019-05-26T04:19:40.928Z,7.90
2019-05-26T04:20:45.594Z,8.10
2019-05-26T04:21:22.780Z,6.87
2019-05-26T04:21:41.067Z,9.50
2019-05-26T04:22:40.941Z,8.70
2019-05-26T04:23:40.993Z,8.30
2019-05-26T04:23:51.665Z,6.97
2019-05-26T04:24:41.025Z,11.90
2019-05-26T04:25:41.013Z,9.10
2019-05-26T04:26:20.517Z,7.40
2019-05-26T04:26:41.009Z,8.10
2019-05-26T04:27:41.025Z,8.10
2019-05-26T04:28:41.034Z,10.60
2019-05-26T04:28:49.437Z,7.27
2019-05-26T04:29:41.031Z,11.10
2019-05-26T04:30:41.058Z,11.30
2019-05-26T04:31:18.302Z,7.83
2019-05-26T04:31:41.072Z,9.50
2019-05-26T04:32:41.097Z,8.80
2019-05-26T04:33:41.101Z,10.50
2019-05-26T04:33:47.268Z,7.60
2019-05-26T04:34:41.119Z,10.50
2019-05-26T04:35:41.127Z,9.60
2019-05-26T04:36:16.122Z,7.47
2019-05-26T04:36:41.157Z,8.10
2019-05-26T04:37:41.161Z,8.00
2019-05-26T04:38:41.172Z,8.00
2019-05-26T04:38:45.006Z,9.07
2019-05-26T04:39:41.197Z,8.20
2019-05-26T04:40:41.208Z,11.30
2019-05-26T04:41:13.856Z,7.70
2019-05-26T04:41:41.235Z,9.20
2019-05-26T04:42:41.242Z,11.40
2019-05-26T04:43:41.260Z,9.20
2019-05-26T04:43:42.756Z,7.83
2019-05-26T04:44:41.278Z,7.10
2019-05-26T04:45:41.291Z,9.80
2019-05-26T04:46:11.713Z,7.73
2019-05-26T04:46:41.321Z,10.40
2019-05-26T04:47:41.326Z,8.00
2019-05-26T04:48:40.588Z,7.13
2019-05-26T04:48:41.338Z,10.80
2019-05-26T04:49:41.356Z,9.30
2019-05-26T04:50:41.373Z,12.70
2019-05-26T04:51:09.470Z,7.30
2019-05-26T04:51:41.390Z,9.30
2019-05-26T04:52:41.406Z,9.50
2019-05-26T04:53:38.345Z,7.43
2019-05-26T04:53:41.426Z,13.00
2019-05-26T04:54:41.440Z,10.10
2019-05-26T04:55:41.461Z,7.70
2019-05-26T04:56:07.193Z,7.07
2019-05-26T04:56:41.487Z,9.50
2019-05-26T04:57:41.497Z,8.20
2019-05-26T04:58:36.067Z,6.63
2019-05-26T04:58:41.512Z,8.60
2019-05-26T04:59:41.531Z,8.00
2019-05-26T05:00:41.545Z,10.10
2019-05-26T05:01:04.923Z,6.83
2019-05-26T05:01:41.562Z,8.20
2019-05-26T05:02:41.586Z,8.50
2019-05-26T05:03:33.815Z,5.60
2019-05-26T05:03:41.597Z,7.60
2019-05-26T05:04:41.615Z,7.00
2019-05-26T05:05:41.634Z,8.90
2019-05-26T05:06:02.674Z,5.57
2019-05-26T05:06:41.654Z,8.70
2019-05-26T05:07:41.672Z,8.50
2019-05-26T05:08:31.656Z,6.60
2019-05-26T05:08:41.697Z,8.00
2019-05-26T05:09:41.708Z,7.30
2019-05-26T05:10:42.934Z,9.90
2019-05-26T05:11:00.515Z,7.23
2019-05-26T05:11:41.749Z,10.20
2019-05-26T05:12:41.767Z,10.40
2019-05-26T05:13:29.396Z,7.13
2019-05-26T05:13:41.787Z,8.10
2019-05-26T05:14:41.810Z,11.10
2019-05-26T05:15:41.821Z,8.70
2019-05-26T05:15:58.289Z,7.73
2019-05-26T05:16:41.851Z,11.00
2019-05-26T05:17:41.862Z,11.30
2019-05-26T05:18:27.222Z,7.87
2019-05-26T05:18:41.890Z,13.00
2019-05-26T05:19:41.903Z,10.30
2019-05-26T05:20:41.925Z,14.50
2019-05-26T05:20:56.056Z,7.70
2019-05-26T05:21:41.939Z,13.80
2019-05-26T05:22:41.961Z,13.40
2019-05-26T05:23:24.931Z,8.43
2019-05-26T05:23:41.983Z,12.10
2019-05-26T05:24:42.000Z,11.40
2019-05-26T05:25:42.016Z,11.60
2019-05-26T05:25:53.817Z,8.53
2019-05-26T05:26:42.039Z,11.10
2019-05-26T05:27:42.060Z,12.40
2019-05-26T05:28:22.715Z,9.43
2019-05-26T05:28:42.075Z,11.50
2019-05-26T05:29:42.096Z,10.20
2019-05-26T05:30:42.117Z,11.80
2019-05-26T05:30:51.564Z,8.97
2019-05-26T05:31:42.130Z,9.10
2019-05-26T05:32:42.150Z,13.30
2019-05-26T05:33:20.474Z,7.60
2019-05-26T05:33:42.175Z,13.00
2019-05-26T05:34:42.189Z,11.60
2019-05-26T05:35:42.207Z,13.10
2019-05-26T05:35:49.319Z,9.20
2019-05-26T05:36:42.229Z,15.90
2019-05-26T05:37:42.250Z,10.60
2019-05-26T05:38:18.200Z,8.73
2019-05-26T05:38:42.270Z,12.40
2019-05-26T05:39:42.286Z,12.90
2019-05-26T05:40:58.012Z,10.30
2019-05-26T05:40:59.109Z,8.97
2019-05-26T05:41:42.331Z,13.00
2019-05-26T05:42:42.347Z,14.70
2019-05-26T05:43:17.659Z,8.83
2019-05-26T05:43:42.387Z,13.40
2019-05-26T05:44:42.391Z,13.20
2019-05-26T05:45:42.438Z,11.80
2019-05-26T05:45:47.014Z,8.57
2019-05-26T05:46:42.427Z,13.80
2019-05-26T05:47:42.460Z,11.00
2019-05-26T05:48:15.875Z,8.57
2019-05-26T05:48:42.469Z,14.00
2019-05-26T05:49:42.487Z,11.80
2019-05-26T05:50:42.518Z,12.20
2019-05-26T05:50:44.739Z,8.83
2019-05-26T05:51:42.528Z,11.00
2019-05-26T05:52:42.547Z,14.90
2019-05-26T05:53:13.595Z,8.10
2019-05-26T05:53:42.567Z,11.60
2019-05-26T05:54:42.590Z,12.50
2019-05-26T05:55:42.523Z,7.80
2019-05-26T05:55:42.620Z,13.30
2019-05-26T05:56:42.629Z,11.10
2019-05-26T05:57:42.696Z,10.40
2019-05-26T05:58:11.438Z,10.47
2019-05-26T05:58:42.684Z,12.90
2019-05-26T05:59:42.699Z,10.10
2019-05-26T06:00:40.465Z,8.57
2019-05-26T06:00:42.734Z,12.70
2019-05-26T06:01:42.768Z,11.90
2019-05-26T06:02:42.755Z,13.20
2019-05-26T06:03:09.348Z,10.13
2019-05-26T06:03:42.777Z,12.40
2019-05-26T06:04:42.799Z,11.10
2019-05-26T06:05:38.358Z,10.67
2019-05-26T06:05:42.825Z,9.70
2019-05-26T06:06:42.870Z,11.60
2019-05-26T06:07:42.862Z,13.40
2019-05-26T06:08:07.407Z,9.10
2019-05-26T06:08:42.885Z,13.90
2019-05-26T06:09:42.909Z,12.60
2019-05-26T06:10:36.275Z,10.43
2019-05-26T06:10:42.926Z,12.10
2019-05-26T06:11:42.949Z,9.40
2019-05-26T06:12:42.977Z,11.60
2019-05-26T06:13:05.271Z,9.03
2019-05-26T06:13:42.990Z,10.00
2019-05-26T06:14:43.012Z,10.60
2019-05-26T06:15:34.189Z,8.83
2019-05-26T06:15:43.035Z,14.40
2019-05-26T06:16:43.060Z,9.80
2019-05-26T06:17:43.075Z,13.30
2019-05-26T06:18:03.040Z,8.40
2019-05-26T06:18:43.097Z,10.60
2019-05-26T06:19:43.118Z,10.30
2019-05-26T06:20:31.943Z,9.13
2019-05-26T06:20:43.142Z,12.30
2019-05-26T06:21:43.167Z,10.20
2019-05-26T06:22:43.184Z,9.80
2019-05-26T06:23:00.804Z,8.13
2019-05-26T06:23:43.207Z,10.40
2019-05-26T06:24:43.364Z,13.90
2019-05-26T06:25:29.721Z,7.97
2019-05-26T06:25:43.275Z,11.50
2019-05-26T06:26:43.269Z,11.70
2019-05-26T06:27:43.292Z,12.80
2019-05-26T06:27:58.625Z,8.03
2019-05-26T06:28:43.314Z,11.50
2019-05-26T06:29:57.961Z,11.60
2019-05-26T06:30:27.613Z,8.20
2019-05-26T06:30:43.355Z,9.50
2019-05-26T06:31:43.505Z,13.10
2019-05-26T06:32:43.543Z,10.30
2019-05-26T06:32:56.453Z,7.60
2019-05-26T06:33:43.442Z,9.80
2019-05-26T06:34:43.447Z,10.20
2019-05-26T06:35:25.373Z,7.83
2019-05-26T06:35:43.473Z,9.30
2019-05-26T06:36:43.492Z,19.30
2019-05-26T06:37:43.519Z,11.80
2019-05-26T06:37:54.221Z,7.43
2019-05-26T06:38:43.538Z,9.80
2019-05-26T06:39:43.559Z,12.70
2019-05-26T06:40:23.157Z,7.70
2019-05-26T06:40:43.584Z,8.60
2019-05-26T06:41:43.608Z,9.10
2019-05-26T06:42:43.629Z,10.20
2019-05-26T06:42:52.020Z,8.17
2019-05-26T06:43:43.660Z,11.10
2019-05-26T06:44:53.119Z,11.50
2019-05-26T06:45:21.048Z,7.47
2019-05-26T06:45:43.706Z,12.10
2019-05-26T06:46:43.733Z,11.10
2019-05-26T06:47:43.741Z,11.30
2019-05-26T06:47:49.898Z,7.83
2019-05-26T06:48:43.768Z,8.80
2019-05-26T06:49:43.791Z,10.30
2019-05-26T06:50:18.890Z,7.30
2019-05-26T06:50:43.815Z,10.60
2019-05-26T06:51:43.843Z,12.60
2019-05-26T06:52:43.866Z,11.90
2019-05-26T06:52:47.783Z,10.20
2019-05-26T06:53:43.882Z,11.10
2019-05-26T06:54:43.905Z,12.90
2019-05-26T06:55:16.677Z,7.80
2019-05-26T06:55:43.945Z,12.10
2019-05-26T06:56:43.952Z,10.50
2019-05-26T06:57:43.977Z,11.00
2019-05-26T06:57:45.540Z,8.50
2019-05-26T06:58:44.004Z,10.40
2019-05-26T06:59:44.034Z,10.30
2019-05-26T07:00:14.433Z,7.33
2019-05-26T07:00:44.045Z,10.50
2019-05-26T07:01:44.078Z,8.70
2019-05-26T07:02:43.292Z,8.40
2019-05-26T07:02:44.104Z,12.30
2019-05-26T07:03:44.117Z,12.80
2019-05-26T07:04:44.144Z,9.80
2019-05-26T07:05:12.385Z,9.23
2019-05-26T07:05:44.162Z,11.90
2019-05-26T07:06:44.190Z,10.70
2019-05-26T07:07:41.236Z,10.33
2019-05-26T07:07:44.213Z,12.80
2019-05-26T07:08:44.229Z,9.00
2019-05-26T07:09:44.264Z,10.20
2019-05-26T07:10:10.121Z,8.53
2019-05-26T07:10:44.283Z,11.30
2019-05-26T07:11:55.508Z,13.20
2019-05-26T07:12:39.005Z,8.97
2019-05-26T07:12:44.325Z,11.30
2019-05-26T07:13:44.348Z,11.50
2019-05-26T07:14:44.364Z,9.20
2019-05-26T07:15:09.301Z,9.83
2019-05-26T07:15:44.388Z,13.10
2019-05-26T07:16:44.420Z,11.60
2019-05-26T07:17:38.167Z,13.93
2019-05-26T07:17:44.433Z,15.20
2019-05-26T07:18:44.450Z,16.10
2019-05-26T07:19:44.501Z,21.90
2019-05-26T07:20:07.409Z,14.73
2019-05-26T07:20:44.502Z,19.60
2019-05-26T07:21:44.519Z,18.60
2019-05-26T07:22:36.277Z,13.90
2019-05-26T07:22:44.543Z,18.40
2019-05-26T07:23:44.568Z,19.10
2019-05-26T07:24:44.588Z,15.90
2019-05-26T07:25:05.641Z,13.60
2019-05-26T07:25:44.606Z,17.50
2019-05-26T07:26:44.628Z,19.30
2019-05-26T07:27:34.525Z,15.27
2019-05-26T07:27:44.653Z,19.70
2019-05-26T07:28:44.673Z,16.40
2019-05-26T07:29:44.719Z,20.70
2019-05-26T07:30:03.543Z,15.97
2019-05-26T07:30:44.720Z,17.20
2019-05-26T07:31:44.746Z,17.60
2019-05-26T07:32:32.410Z,15.03
2019-05-26T07:32:44.764Z,18.40
2019-05-26T07:33:44.800Z,20.30
2019-05-26T07:34:44.816Z,18.00
2019-05-26T07:35:01.412Z,17.10
2019-05-26T07:35:44.832Z,23.50
2019-05-26T07:36:44.854Z,19.70
2019-05-26T07:37:30.321Z,17.03
2019-05-26T07:37:44.878Z,20.40
2019-05-26T07:38:44.912Z,19.70
2019-05-26T07:39:44.931Z,18.30
2019-05-26T07:39:59.236Z,15.90
2019-05-26T07:40:44.946Z,16.90
2019-05-26T07:41:44.973Z,24.10
2019-05-26T07:42:28.162Z,15.50
2019-05-26T07:42:44.990Z,18.40
2019-05-26T07:43:45.016Z,18.60
2019-05-26T07:44:45.039Z,17.20
2019-05-26T07:44:58.434Z,15.80
2019-05-26T07:45:45.102Z,20.20
2019-05-26T07:46:45.082Z,16.70
2019-05-26T07:47:27.432Z,15.97
2019-05-26T07:47:45.118Z,17.30
2019-05-26T07:48:45.134Z,21.50
2019-05-26T07:49:45.151Z,18.20
2019-05-26T07:49:56.323Z,15.27
2019-05-26T07:50:45.177Z,17.40
2019-05-26T07:51:45.201Z,20.40
2019-05-26T07:52:25.174Z,15.40
2019-05-26T07:52:45.222Z,17.80
2019-05-26T07:53:45.248Z,18.00
2019-05-26T07:54:45.271Z,17.70
2019-05-26T07:54:54.094Z,14.70
2019-05-26T07:55:45.298Z,17.00
2019-05-26T07:56:45.328Z,16.70
2019-05-26T07:57:22.972Z,14.33
2019-05-26T07:57:45.346Z,16.70
2019-05-26T07:58:45.367Z,19.40
2019-05-26T07:59:45.411Z,16.40
2019-05-26T07:59:51.871Z,14.07
2019-05-26T08:00:45.413Z,17.20
2019-05-26T08:01:45.434Z,14.70
2019-05-26T08:02:20.812Z,13.00
2019-05-26T08:02:45.463Z,12.60
2019-05-26T08:03:45.484Z,16.10
2019-05-26T08:04:45.516Z,15.40
2019-05-26T08:04:49.717Z,12.13
2019-05-26T08:05:45.532Z,15.30
2019-05-26T08:06:45.554Z,13.90
2019-05-26T08:07:18.582Z,12.13
2019-05-26T08:07:45.588Z,15.40
2019-05-26T08:08:45.603Z,14.10
2019-05-26T08:09:45.622Z,17.10
2019-05-26T08:09:47.504Z,12.23
2019-05-26T08:10:45.648Z,15.80
2019-05-26T08:11:45.674Z,15.10
2019-05-26T08:12:25.844Z,11.63
2019-05-26T08:12:45.699Z,12.50
2019-05-26T08:13:45.721Z,16.70
2019-05-26T08:14:45.752Z,17.50
2019-05-26T08:14:46.949Z,11.53
2019-05-26T08:15:45.766Z,13.80
2019-05-26T08:16:45.794Z,12.00
2019-05-26T08:17:15.788Z,11.87
2019-05-26T08:17:45.812Z,13.10
2019-05-26T08:18:45.834Z,14.80
2019-05-26T08:19:44.861Z,11.07
2019-05-26T08:19:45.900Z,14.00
2019-05-26T08:20:45.887Z,11.90
2019-05-26T08:21:45.908Z,13.40
2019-05-26T08:22:13.738Z,10.60
2019-05-26T08:22:45.923Z,12.50
2019-05-26T08:23:45.948Z,12.90
2019-05-26T08:24:42.623Z,11.30
2019-05-26T08:24:45.970Z,13.70
2019-05-26T08:25:46.055Z,12.00
2019-05-26T08:26:46.067Z,12.90
2019-05-26T08:27:14.007Z,9.13
2019-05-26T08:27:46.039Z,13.30
2019-05-26T08:28:46.104Z,12.20
2019-05-26T08:29:42.926Z,8.80
2019-05-26T08:29:46.090Z,13.40
2019-05-26T08:30:46.116Z,12.00
2019-05-26T08:31:46.127Z,10.40
2019-05-26T08:32:14.559Z,9.23
2019-05-26T08:32:46.171Z,13.00
2019-05-26T08:33:46.188Z,10.00
2019-05-26T08:34:42.357Z,9.13
2019-05-26T08:34:46.218Z,13.20
2019-05-26T08:35:46.221Z,12.20
2019-05-26T08:36:46.243Z,9.60
2019-05-26T08:37:11.202Z,9.03
2019-05-26T08:37:46.266Z,10.20
2019-05-26T08:38:46.287Z,13.20
2019-05-26T08:39:40.122Z,9.80
2019-05-26T08:39:48.585Z,10.50
2019-05-26T08:40:46.334Z,11.10
2019-05-26T08:41:46.388Z,9.30
2019-05-26T08:42:26.414Z,8.90
2019-05-26T08:42:46.379Z,10.40
2019-05-26T08:43:46.404Z,10.50
2019-05-26T08:44:42.324Z,7.97
2019-05-26T08:44:46.420Z,11.70
2019-05-26T08:45:46.442Z,11.20
2019-05-26T08:46:46.471Z,11.70
2019-05-26T08:47:11.235Z,8.03
2019-05-26T08:47:46.489Z,10.60
2019-05-26T08:48:46.510Z,10.00
2019-05-26T08:49:40.163Z,8.67
2019-05-26T08:49:46.532Z,11.00
2019-05-26T08:50:46.554Z,9.40
2019-05-26T08:51:46.579Z,9.60
2019-05-26T08:52:09.042Z,6.87
2019-05-26T08:52:46.598Z,10.20
2019-05-26T08:53:46.626Z,13.00
2019-05-26T08:54:38.108Z,8.37
2019-05-26T08:54:46.639Z,8.90
2019-05-26T08:55:46.709Z,10.00
2019-05-26T08:56:46.727Z,11.30
2019-05-26T08:57:07.019Z,9.00
2019-05-26T08:57:46.846Z,10.40
2019-05-26T08:58:46.804Z,11.90
2019-05-26T08:59:35.941Z,9.57
2019-05-26T08:59:46.842Z,11.20
2019-05-26T09:00:46.846Z,14.60
2019-05-26T09:01:46.846Z,13.70
2019-05-26T09:02:04.831Z,10.27
2019-05-26T09:02:46.861Z,9.90
2019-05-26T09:03:46.853Z,13.10
2019-05-26T09:04:33.694Z,8.93
2019-05-26T09:04:46.864Z,10.80
2019-05-26T09:05:46.884Z,9.00
2019-05-26T09:06:46.915Z,10.30
2019-05-26T09:07:02.598Z,8.40
2019-05-26T09:07:46.940Z,10.00
2019-05-26T09:08:46.958Z,13.50
2019-05-26T09:09:31.474Z,9.33
2019-05-26T09:09:46.970Z,13.20
2019-05-26T09:10:46.998Z,16.40
2019-05-26T09:11:47.018Z,12.00
2019-05-26T09:12:00.353Z,9.57
2019-05-26T09:12:59.612Z,12.30
2019-05-26T09:13:47.065Z,12.20
2019-05-26T09:14:29.242Z,10.77
2019-05-26T09:14:47.082Z,14.30
2019-05-26T09:15:47.096Z,13.30
2019-05-26T09:16:47.121Z,14.50
2019-05-26T09:16:58.160Z,9.10
2019-05-26T09:17:47.159Z,12.10
2019-05-26T09:18:47.168Z,13.90
2019-05-26T09:19:27.010Z,10.33
2019-05-26T09:19:47.194Z,12.50
2019-05-26T09:20:47.207Z,14.00
2019-05-26T09:21:47.226Z,13.00